Time;durP1;ratioP1;P1;durP2;ratioP2;P2;SDS_P1;SDS_P2;PMS_P1;PMS_P2;Temp;Humidity;BMP_temperature;BMP_pressure;BME280_temperature;BME280_humidity;BME280_pressure;Samples;Min_cycle;Max_cycle;Signal;HPM_P1;HPM_P2
2022/03/23 00:00:56;;;;;;;21.13;10.80;;;3.30;96.10;;;;;;4973931;28;20740;-73
2022/03/23 00:03:21;;;;;;;25.97;12.43;;;3.20;96.00;;;;;;4972498;28;20206;-73
2022/03/23 00:05:47;;;;;;;25.10;12.10;;;3.20;96.20;;;;;;4973728;28;20174;-73
2022/03/23 00:08:12;;;;;;;25.77;13.30;;;3.10;96.30;;;;;;4973237;28;20270;-73
2022/03/23 00:10:38;;;;;;;29.07;12.20;;;3.20;96.30;;;;;;4974768;28;20171;-73
2022/03/23 00:13:04;;;;;;;23.27;12.10;;;3.10;96.20;;;;;;4973372;28;20198;-73
2022/03/23 00:15:31;;;;;;;24.83;12.43;;;3.10;95.90;;;;;;4974546;28;20609;-75
2022/03/23 00:17:57;;;;;;;24.53;11.33;;;3.00;96.30;;;;;;4974809;28;20413;-73
2022/03/23 00:20:24;;;;;;;25.47;11.70;;;3.00;96.40;;;;;;4974787;28;20452;-73
2022/03/23 00:22:50;;;;;;;25.87;11.77;;;3.00;96.50;;;;;;4972945;28;20457;-73
2022/03/23 00:25:16;;;;;;;33.80;13.57;;;2.90;96.80;;;;;;4972361;28;20414;-73
2022/03/23 00:27:42;;;;;;;28.17;12.20;;;2.90;96.60;;;;;;4972522;28;20476;-73
2022/03/23 00:30:08;;;;;;;24.40;12.30;;;2.90;96.60;;;;;;4972152;28;20179;-76
2022/03/23 00:32:34;;;;;;;27.63;13.03;;;2.90;96.70;;;;;;4972319;28;20185;-73
2022/03/23 00:35:00;;;;;;;28.33;13.23;;;2.80;97.00;;;;;;4972063;28;20425;-73
2022/03/23 00:37:25;;;;;;;28.10;13.50;;;2.80;96.70;;;;;;4972250;28;20194;-74
2022/03/23 00:39:51;;;;;;;31.30;12.83;;;2.80;96.40;;;;;;4968139;28;21248;-73
2022/03/23 00:42:16;;;;;;;30.23;12.23;;;2.70;96.60;;;;;;4972295;28;20191;-74
2022/03/23 00:44:42;;;;;;;31.87;14.40;;;2.70;96.70;;;;;;4972219;28;20194;-73
2022/03/23 00:47:09;;;;;;;26.60;13.23;;;2.60;96.70;;;;;;4972539;28;20178;-75
2022/03/23 00:49:35;;;;;;;39.43;14.97;;;2.60;96.80;;;;;;4972026;28;20480;-74
2022/03/23 00:52:02;;;;;;;36.73;14.50;;;2.60;96.90;;;;;;4972213;28;21084;-74
2022/03/23 00:54:28;;;;;;;28.23;14.13;;;2.50;97.10;;;;;;4971806;28;20452;-74
2022/03/23 00:56:53;;;;;;;22.23;12.17;;;2.40;97.20;;;;;;4973414;28;20509;-74
2022/03/23 00:59:22;;;;;;;29.40;11.97;;;2.40;97.20;;;;;;4971665;28;20202;-74
2022/03/23 01:01:48;;;;;;;38.57;13.20;;;2.40;97.30;;;;;;4972330;28;20578;-74
2022/03/23 01:04:15;;;;;;;30.10;13.30;;;2.40;97.30;;;;;;4971921;28;20462;-73
2022/03/23 01:06:41;;;;;;;34.70;14.80;;;2.40;97.30;;;;;;4971573;28;20421;-74
2022/03/23 01:09:07;;;;;;;30.80;12.70;;;2.40;97.30;;;;;;4971835;28;20806;-74
2022/03/23 01:11:32;;;;;;;23.80;11.87;;;2.40;97.30;;;;;;4971626;28;20422;-74
2022/03/23 01:13:58;;;;;;;26.83;12.17;;;2.40;97.30;;;;;;4971499;28;20198;-74
2022/03/23 01:16:24;;;;;;;27.43;12.40;;;2.30;97.30;;;;;;4971648;28;20182;-73
2022/03/23 01:18:49;;;;;;;32.60;14.23;;;2.30;97.30;;;;;;4971485;28;20632;-74
2022/03/23 01:21:16;;;;;;;28.43;13.30;;;2.30;97.30;;;;;;4970963;28;20186;-74
2022/03/23 01:23:44;;;;;;;27.30;12.40;;;2.20;97.30;;;;;;4972367;28;20214;-74
2022/03/23 01:26:09;;;;;;;24.30;12.33;;;2.20;97.30;;;;;;4972604;28;20422;-75
2022/03/23 01:28:36;;;;;;;24.17;12.37;;;2.10;97.30;;;;;;4971363;28;21046;-75
2022/03/23 01:31:17;;;;;;;28.77;11.97;;;2.10;97.30;;;;;;4972297;28;20659;-74
2022/03/23 01:33:43;;;;;;;35.60;14.97;;;2.00;97.30;;;;;;4971494;28;20453;-72
2022/03/23 01:36:10;;;;;;;27.70;13.10;;;2.00;97.30;;;;;;4970582;28;20418;-72
2022/03/23 01:38:36;;;;;;;30.23;12.80;;;2.00;97.30;;;;;;4988988;28;20224;-72
2022/03/23 01:41:02;;;;;;;30.53;13.43;;;1.90;97.30;;;;;;5009609;28;20430;-72
2022/03/23 01:43:28;;;;;;;27.30;13.70;;;1.90;97.30;;;;;;5010722;28;20217;-71
2022/03/23 01:45:54;;;;;;;29.00;13.10;;;1.90;97.30;;;;;;5009456;28;20420;-72
2022/03/23 01:48:20;;;;;;;25.87;12.00;;;1.90;97.30;;;;;;5010889;28;20432;-73
2022/03/23 01:50:45;;;;;;;42.63;13.63;;;1.80;97.30;;;;;;5012141;28;20820;-72
2022/03/23 01:53:11;;;;;;;29.40;12.63;;;1.80;97.30;;;;;;5025395;28;20282;-72
2022/03/23 01:55:36;;;;;;;29.83;14.93;;;1.70;97.30;;;;;;5031878;28;20179;-73
2022/03/23 01:58:02;;;;;;;33.20;14.30;;;1.70;97.30;;;;;;5014775;28;20630;-72
2022/03/23 02:00:28;;;;;;;31.80;13.60;;;1.70;97.30;;;;;;5014597;28;20650;-73
2022/03/23 02:02:54;;;;;;;28.67;12.43;;;1.60;97.30;;;;;;5013527;28;20623;-72
2022/03/23 02:05:19;;;;;;;30.30;14.33;;;1.50;97.30;;;;;;5013678;28;20176;-73
2022/03/23 02:07:45;;;;;;;31.13;12.30;;;1.50;97.30;;;;;;5014696;28;20295;-73
2022/03/23 02:10:11;;;;;;;27.73;13.33;;;1.50;97.30;;;;;;5031862;28;20203;-72
2022/03/23 02:12:38;;;;;;;35.07;13.50;;;1.40;97.30;;;;;;5013778;28;20188;-73
2022/03/23 02:15:17;;;;;;;25.83;11.30;;;1.40;97.30;;;;;;5031829;28;20172;-73
2022/03/23 02:17:44;;;;;;;31.53;12.90;;;1.40;97.30;;;;;;5013915;28;20419;-73
2022/03/23 02:20:11;;;;;;;34.43;13.87;;;1.40;97.30;;;;;;5031622;28;21087;-73
2022/03/23 02:22:37;;;;;;;31.07;13.53;;;1.40;97.30;;;;;;5013598;28;20598;-72
2022/03/23 02:25:06;;;;;;;32.27;14.00;;;1.40;97.30;;;;;;5013425;28;20886;-72
2022/03/23 02:27:34;;;;;;;29.27;12.97;;;1.30;97.30;;;;;;5013740;28;20588;-73
2022/03/23 02:30:00;;;;;;;30.53;14.07;;;1.30;97.30;;;;;;5013348;28;20422;-73
2022/03/23 02:32:25;;;;;;;26.97;13.00;;;1.30;97.30;;;;;;5031432;28;20411;-73
2022/03/23 02:34:51;;;;;;;33.27;12.80;;;1.30;97.30;;;;;;5031191;28;20263;-72
2022/03/23 02:37:16;;;;;;;25.37;12.33;;;1.30;97.30;;;;;;5031225;28;20230;-74
2022/03/23 02:39:42;;;;;;;31.77;11.80;;;1.30;97.30;;;;;;5031212;28;20676;-73
2022/03/23 02:42:08;;;;;;;23.40;11.40;;;1.20;97.30;;;;;;5031252;28;20180;-75
2022/03/23 02:44:34;;;;;;;31.93;13.40;;;1.20;97.30;;;;;;5013213;28;20443;-72
2022/03/23 02:47:01;;;;;;;33.17;15.30;;;1.20;97.30;;;;;;5012065;28;20538;-73
2022/03/23 02:49:26;;;;;;;29.97;12.80;;;1.20;97.30;;;;;;5029978;28;20415;-72
2022/03/23 02:51:52;;;;;;;26.97;13.03;;;1.20;97.30;;;;;;5026994;28;20431;-74
2022/03/23 03:03:09;;;;;;;25.47;11.67;;;1.10;97.30;;;;;;5008021;28;20630;-72
2022/03/23 03:05:35;;;;;;;25.10;12.20;;;1.00;97.30;;;;;;5010087;28;20939;-72
2022/03/23 03:10:44;;;;;;;28.33;12.70;;;0.90;97.30;;;;;;5010255;28;20252;-73
2022/03/23 03:13:10;;;;;;;31.60;12.40;;;0.90;97.30;;;;;;5009675;28;20519;-72
2022/03/23 03:15:37;;;;;;;26.23;12.63;;;0.90;97.30;;;;;;5010289;28;20772;-75
2022/03/23 03:18:06;;;;;;;33.20;12.80;;;0.90;97.30;;;;;;5008988;28;20184;-75
2022/03/23 03:20:35;;;;;;;25.50;11.53;;;0.90;97.30;;;;;;5010381;28;20507;-76
2022/03/23 03:23:01;;;;;;;24.50;12.10;;;0.80;97.30;;;;;;5009966;28;20467;-75
2022/03/23 03:25:27;;;;;;;32.50;12.73;;;0.80;97.30;;;;;;5009153;28;20412;-75
2022/03/23 03:27:52;;;;;;;35.20;12.10;;;0.80;97.30;;;;;;5009631;28;20716;-74
2022/03/23 03:30:19;;;;;;;37.23;13.27;;;0.80;97.30;;;;;;5013465;28;20657;-73
2022/03/23 03:32:50;;;;;;;33.40;13.53;;;0.80;97.30;;;;;;5012510;28;20177;-75
2022/03/23 03:35:17;;;;;;;23.80;11.90;;;0.70;97.30;;;;;;5013447;28;20454;-75
2022/03/23 03:37:46;;;;;;;28.40;12.60;;;0.80;97.30;;;;;;5012190;28;20419;-74
2022/03/23 03:40:12;;;;;;;26.50;13.37;;;0.70;97.30;;;;;;5046613;22;20505;-86
2022/03/23 03:42:38;;;;;;;29.57;13.50;;;0.70;97.30;;;;;;5034043;28;20489;-86
2022/03/23 03:45:05;;;;;;;28.10;12.83;;;0.70;97.30;;;;;;5015259;28;20177;-86
2022/03/23 03:47:30;;;;;;;35.40;12.90;;;0.70;97.30;;;;;;5030697;28;20646;-85
2022/03/23 03:49:56;;;;;;;45.83;14.90;;;0.70;97.30;;;;;;5031823;28;20514;-87
2022/03/23 03:52:21;;;;;;;28.80;12.40;;;0.70;97.30;;;;;;5030698;28;20219;-86
2022/03/23 03:54:47;;;;;;;25.47;12.50;;;0.70;97.30;;;;;;5030231;28;20628;-86
2022/03/23 03:57:12;;;;;;;30.60;13.90;;;0.70;97.30;;;;;;5030497;28;20181;-85
2022/03/23 03:59:38;;;;;;;34.03;11.67;;;0.70;97.30;;;;;;5015055;28;20203;-86
2022/03/23 04:02:04;;;;;;;25.40;11.97;;;0.60;97.30;;;;;;5014010;28;20189;-85
2022/03/23 04:04:30;;;;;;;32.80;13.37;;;0.60;97.30;;;;;;5013347;28;20251;-86
2022/03/23 04:06:56;;;;;;;27.60;12.23;;;0.60;97.30;;;;;;5013702;28;20458;-88
2022/03/23 04:09:21;;;;;;;31.50;13.90;;;0.50;97.30;;;;;;5013538;28;20797;-86
2022/03/23 04:11:47;;;;;;;26.40;12.77;;;0.50;97.30;;;;;;5013635;28;20176;-86
2022/03/23 04:14:12;;;;;;;32.57;13.73;;;0.50;97.30;;;;;;5013444;28;20713;-87
2022/03/23 04:16:39;;;;;;;28.70;13.50;;;0.50;97.30;;;;;;5014992;28;20189;-87
2022/03/23 04:19:05;;;;;;;26.07;12.27;;;0.50;97.30;;;;;;5015015;28;20462;-87
2022/03/23 04:21:30;;;;;;;26.50;11.70;;;0.50;97.30;;;;;;5013662;28;20816;-87
2022/03/23 04:23:56;;;;;;;27.23;13.10;;;0.50;97.30;;;;;;5012877;28;20469;-86
2022/03/23 04:26:21;;;;;;;28.60;12.10;;;0.50;97.30;;;;;;5013079;28;20179;-87
2022/03/23 04:28:47;;;;;;;25.87;11.53;;;0.50;97.30;;;;;;5013137;28;20745;-86
2022/03/23 04:31:13;;;;;;;33.60;14.43;;;0.40;97.30;;;;;;5013049;28;20169;-87
2022/03/23 04:33:38;;;;;;;27.13;12.10;;;0.40;97.30;;;;;;5031171;28;20173;-87
2022/03/23 04:36:04;;;;;;;28.80;12.30;;;0.40;97.30;;;;;;5013521;28;20189;-87
2022/03/23 04:38:29;;;;;;;28.37;12.90;;;0.40;97.30;;;;;;5012919;28;20185;-87
2022/03/23 04:40:56;;;;;;;33.43;14.40;;;0.40;97.30;;;;;;5012896;28;20268;-87
2022/03/23 04:43:21;;;;;;;31.10;14.90;;;0.40;97.30;;;;;;5013303;28;20215;-87
2022/03/23 04:45:47;;;;;;;30.20;13.00;;;0.40;97.30;;;;;;5012914;28;20423;-86
2022/03/23 04:48:12;;;;;;;30.23;14.03;;;0.40;97.30;;;;;;5030712;28;20558;-85
2022/03/23 04:50:38;;;;;;;29.90;13.30;;;0.30;97.30;;;;;;5008592;28;20190;-84
2022/03/23 04:53:06;;;;;;;32.47;13.83;;;0.30;97.30;;;;;;5012012;28;20180;-86
2022/03/23 04:55:34;;;;;;;27.03;12.83;;;0.30;97.30;;;;;;5026822;28;20186;-84
2022/03/23 04:58:05;;;;;;;30.90;14.50;;;0.30;97.30;;;;;;5006763;28;20426;-86
2022/03/23 05:00:30;;;;;;;34.53;14.70;;;0.30;97.30;;;;;;5002721;28;20581;-88
2022/03/23 05:02:56;;;;;;;27.90;12.87;;;0.30;97.30;;;;;;5005106;28;20885;-84
2022/03/23 05:05:25;;;;;;;29.93;13.50;;;0.20;97.30;;;;;;5012501;28;20181;-85
2022/03/23 05:07:53;;;;;;;34.47;12.73;;;0.10;97.30;;;;;;5009613;28;20184;-88
2022/03/23 05:10:18;;;;;;;31.70;13.50;;;0.10;97.30;;;;;;5004234;28;20432;-87
2022/03/23 05:12:45;;;;;;;33.97;13.37;;;0.10;97.30;;;;;;5008828;28;20424;-85
2022/03/23 05:15:13;;;;;;;29.70;14.17;;;0.10;97.30;;;;;;5006384;28;20188;-87
2022/03/23 05:17:40;;;;;;;32.80;13.70;;;0.10;97.30;;;;;;5018927;28;20424;-85
2022/03/23 05:20:07;;;;;;;28.77;12.57;;;0.10;97.30;;;;;;5009042;28;20474;-84
2022/03/23 05:22:33;;;;;;;34.97;12.53;;;0.10;97.30;;;;;;5007113;28;20415;-85
2022/03/23 05:24:59;;;;;;;34.73;13.93;;;0.10;97.30;;;;;;5029195;28;20427;-86
2022/03/23 05:27:27;;;;;;;38.53;14.43;;;0.10;97.30;;;;;;5010118;28;20280;-87
2022/03/23 05:29:53;;;;;;;34.20;15.00;;;0.10;97.30;;;;;;5008160;28;20447;-87
2022/03/23 05:32:18;;;;;;;32.03;14.00;;;0.10;97.30;;;;;;5012844;28;20431;-87
2022/03/23 05:34:45;;;;;;;36.10;14.23;;;0.20;97.30;;;;;;5012810;28;20179;-86
2022/03/23 05:37:11;;;;;;;29.77;13.47;;;0.20;97.30;;;;;;5007928;28;20183;-87
2022/03/23 05:39:53;;;;;;;32.77;12.90;;;0.20;97.30;;;;;;5016866;28;20501;-89
2022/03/23 05:42:19;;;;;;;35.20;13.60;;;0.20;97.30;;;;;;5028189;28;20418;-88
2022/03/23 05:44:45;;;;;;;28.80;12.93;;;0.30;97.30;;;;;;5026949;28;20805;-86
2022/03/23 05:47:16;;;;;;;40.50;16.37;;;0.30;97.30;;;;;;5028355;28;20853;-87
2022/03/23 05:49:41;;;;;;;36.73;14.43;;;0.30;97.30;;;;;;5023297;28;20246;-84
2022/03/23 05:52:07;;;;;;;36.47;13.87;;;0.30;97.30;;;;;;5002949;28;20466;-87
2022/03/23 05:54:32;;;;;;;36.10;14.90;;;0.40;97.30;;;;;;5013664;28;20192;-85
2022/03/23 05:57:02;;;;;;;35.20;13.87;;;0.40;97.30;;;;;;5021716;28;20306;-85
2022/03/23 05:59:28;;;;;;;42.10;14.90;;;0.50;97.30;;;;;;5012350;28;20212;-85
2022/03/23 06:01:54;;;;;;;31.83;14.53;;;0.50;97.30;;;;;;5017493;28;20439;-87
2022/03/23 06:04:19;;;;;;;45.20;14.13;;;0.50;97.30;;;;;;5016039;28;20470;-88
2022/03/23 06:06:45;;;;;;;31.80;13.23;;;0.60;97.30;;;;;;5013209;28;20625;-88
2022/03/23 06:09:12;;;;;;;34.63;13.40;;;0.70;97.30;;;;;;5029727;28;20259;-87
2022/03/23 06:11:38;;;;;;;28.67;14.57;;;0.70;97.30;;;;;;5017093;28;20188;-87
2022/03/23 06:14:04;;;;;;;37.40;15.83;;;0.80;97.30;;;;;;5010540;28;20415;-89
2022/03/23 06:16:29;;;;;;;28.30;13.07;;;0.90;97.30;;;;;;5001641;28;20424;-87
2022/03/23 06:18:55;;;;;;;35.10;13.47;;;0.90;97.30;;;;;;4998870;28;20270;-87
2022/03/23 06:21:21;;;;;;;32.03;14.40;;;1.00;97.30;;;;;;5009374;28;20186;-87
2022/03/23 06:23:46;;;;;;;33.97;14.47;;;1.10;97.30;;;;;;5005562;28;20290;-87
2022/03/23 06:26:12;;;;;;;33.33;15.00;;;1.10;97.30;;;;;;5007722;28;20422;-87
2022/03/23 06:28:38;;;;;;;35.33;15.73;;;1.30;97.30;;;;;;5005009;28;20172;-86
2022/03/23 06:31:03;;;;;;;35.30;15.57;;;1.40;97.30;;;;;;5008736;28;20173;-87
2022/03/23 06:33:29;;;;;;;34.47;15.70;;;1.50;97.30;;;;;;5014507;28;20178;-87
2022/03/23 06:35:54;;;;;;;33.37;15.30;;;1.60;97.30;;;;;;5036844;28;20714;-87
2022/03/23 06:38:21;;;;;;;37.40;14.90;;;1.80;97.30;;;;;;5007654;28;20670;-87
2022/03/23 06:40:47;;;;;;;38.50;15.77;;;1.90;97.30;;;;;;5005956;28;20283;-88
2022/03/23 06:43:12;;;;;;;37.27;14.73;;;2.00;97.30;;;;;;5027445;28;20454;-87
2022/03/23 06:45:40;;;;;;;27.73;14.50;;;2.20;97.30;;;;;;5012250;28;20978;-87
2022/03/23 06:48:07;;;;;;;41.47;16.10;;;2.40;97.30;;;;;;5005497;28;20173;-87
2022/03/23 06:50:33;;;;;;;38.83;18.23;;;2.50;97.30;;;;;;5024137;28;20497;-87
2022/03/23 06:52:58;;;;;;;46.27;18.80;;;2.70;97.30;;;;;;5019895;28;20901;-87
2022/03/23 06:55:24;;;;;;;52.90;18.40;;;2.90;97.30;;;;;;4998506;28;20529;-87
2022/03/23 06:57:52;;;;;;;42.73;17.50;;;3.10;97.30;;;;;;4999916;28;20189;-87
2022/03/23 07:00:17;;;;;;;42.60;16.90;;;3.40;97.30;;;;;;5008398;28;20620;-87
2022/03/23 07:02:48;;;;;;;42.37;17.60;;;3.60;97.30;;;;;;5007154;28;20451;-87
2022/03/23 07:05:16;;;;;;;37.60;16.30;;;3.80;97.30;;;;;;5006647;28;20263;-88
2022/03/23 07:09:31;;;;;;;41.27;17.40;;;4.10;97.30;;;;;;5012300;28;20423;-87
2022/03/23 07:10:27;;;;;;;42.23;16.13;;;4.30;97.30;;;;;;5024067;28;20443;-87
2022/03/23 07:12:54;;;;;;;34.57;16.80;;;4.50;96.30;;;;;;5014109;28;20431;-83
2022/03/23 07:15:19;;;;;;;36.77;16.60;;;4.80;95.50;;;;;;5009779;28;20421;-89
2022/03/23 07:17:45;;;;;;;35.53;15.80;;;5.00;95.20;;;;;;5004082;28;20432;-87
2022/03/23 07:20:11;;;;;;;32.93;14.60;;;5.20;93.90;;;;;;5009635;28;20283;-87
2022/03/23 07:22:37;;;;;;;39.87;17.20;;;5.40;93.80;;;;;;5004902;28;20211;-87
2022/03/23 07:25:03;;;;;;;39.43;16.60;;;5.50;93.60;;;;;;4999289;28;21006;-86
2022/03/23 07:27:29;;;;;;;37.90;16.13;;;5.70;92.50;;;;;;5019510;28;20172;-87
2022/03/23 07:29:54;;;;;;;35.97;16.07;;;5.90;92.30;;;;;;5030517;28;20562;-88
2022/03/23 07:32:20;;;;;;;37.73;16.93;;;6.10;92.00;;;;;;5031641;28;20411;-88
2022/03/23 07:34:46;;;;;;;37.80;16.93;;;6.30;92.00;;;;;;5032202;28;20540;-88
2022/03/23 07:37:12;;;;;;;35.27;15.50;;;6.50;90.80;;;;;;5017058;28;20738;-87
2022/03/23 07:39:37;;;;;;;45.23;17.37;;;6.60;90.20;;;;;;5011005;28;20484;-88
2022/03/23 07:42:06;;;;;;;35.93;17.47;;;6.80;89.80;;;;;;5006105;28;20221;-88
2022/03/23 07:44:34;;;;;;;43.83;16.97;;;6.90;90.10;;;;;;5010023;28;20467;-88
2022/03/23 07:47:15;;;;;;;38.67;18.53;;;7.10;89.60;;;;;;5010120;28;20408;-87
2022/03/23 07:49:41;;;;;;;40.07;17.50;;;7.20;89.70;;;;;;5011216;28;20436;-88
2022/03/23 07:52:08;;;;;;;40.83;18.60;;;7.40;88.40;;;;;;5000863;28;20425;-88
2022/03/23 07:54:34;;;;;;;43.07;18.30;;;7.60;88.10;;;;;;5006375;28;20416;-88
2022/03/23 07:57:00;;;;;;;46.83;19.37;;;7.80;88.40;;;;;;5006646;28;20423;-87
2022/03/23 07:59:26;;;;;;;44.53;18.57;;;7.90;86.30;;;;;;5030633;28;20431;-88
2022/03/23 08:01:52;;;;;;;39.73;18.40;;;8.00;86.70;;;;;;5031663;28;20500;-87
2022/03/23 08:04:17;;;;;;;41.90;20.13;;;8.20;86.20;;;;;;5030548;28;20204;-87
2022/03/23 08:06:43;;;;;;;45.57;20.37;;;8.30;86.70;;;;;;5014517;28;20189;-87
2022/03/23 08:09:09;;;;;;;48.00;20.03;;;8.50;84.90;;;;;;5009160;28;20200;-88
2022/03/23 08:11:36;;;;;;;45.07;19.33;;;8.50;83.50;;;;;;5006120;28;20178;-87
2022/03/23 08:14:01;;;;;;;40.20;18.00;;;8.70;84.00;;;;;;5003880;28;20492;-88
2022/03/23 08:16:27;;;;;;;39.93;18.67;;;8.80;83.70;;;;;;5001817;28;20739;-87
2022/03/23 08:18:53;;;;;;;40.20;19.03;;;8.90;83.80;;;;;;5006631;28;20178;-87
2022/03/23 08:21:21;;;;;;;40.67;19.90;;;9.10;84.30;;;;;;5017551;28;20534;-86
2022/03/23 08:23:47;;;;;;;47.07;20.17;;;9.20;82.90;;;;;;5001318;28;20475;-87
2022/03/23 08:26:14;;;;;;;45.60;17.90;;;9.30;82.90;;;;;;5000517;28;20504;-88
2022/03/23 08:28:41;;;;;;;47.60;18.93;;;9.40;82.50;;;;;;5010650;28;20424;-87
2022/03/23 08:31:06;;;;;;;48.47;20.27;;;9.50;81.80;;;;;;5004313;28;20423;-87
2022/03/23 08:33:34;;;;;;;35.57;19.13;;;9.60;81.30;;;;;;5006461;28;20423;-88
2022/03/23 08:36:01;;;;;;;41.70;18.53;;;9.80;81.90;;;;;;5011623;28;20551;-88
2022/03/23 08:38:26;;;;;;;39.13;18.73;;;9.90;80.80;;;;;;5012692;28;20419;-88
2022/03/23 08:40:52;;;;;;;38.27;18.67;;;10.00;79.80;;;;;;5011855;28;20468;-87
2022/03/23 08:43:18;;;;;;;45.80;19.33;;;10.10;79.50;;;;;;5010553;28;20248;-88
2022/03/23 08:45:43;;;;;;;44.40;19.37;;;10.20;78.50;;;;;;5002752;28;20833;-87
2022/03/23 08:48:09;;;;;;;47.43;19.83;;;10.30;78.80;;;;;;5006350;28;20665;-87
2022/03/23 08:50:36;;;;;;;37.17;18.23;;;10.50;78.30;;;;;;5001966;28;20683;-87
2022/03/23 08:53:03;;;;;;;40.30;18.93;;;10.60;77.30;;;;;;5008348;28;20424;-87
2022/03/23 08:55:29;;;;;;;47.27;19.80;;;10.80;77.30;;;;;;5008083;28;20419;-88
2022/03/23 08:57:55;;;;;;;38.70;20.27;;;11.00;78.40;;;;;;5003342;28;20453;-89
2022/03/23 09:00:20;;;;;;;44.40;19.10;;;11.20;78.10;;;;;;5006428;28;20440;-88
2022/03/23 09:02:46;;;;;;;37.03;16.90;;;11.40;76.80;;;;;;5006104;28;20205;-87
2022/03/23 09:05:14;;;;;;;37.80;18.13;;;11.50;75.90;;;;;;4998522;28;20182;-87
2022/03/23 09:07:41;;;;;;;39.23;18.20;;;11.60;75.90;;;;;;5008672;28;20644;-87
2022/03/23 09:10:08;;;;;;;39.77;18.30;;;11.70;74.70;;;;;;5006227;28;20443;-87
2022/03/23 09:12:34;;;;;;;41.43;20.03;;;11.70;74.80;;;;;;5000596;28;20444;-87
2022/03/23 09:15:00;;;;;;;42.30;19.97;;;11.90;75.20;;;;;;5006009;28;20420;-88
2022/03/23 09:17:25;;;;;;;41.50;18.57;;;12.00;73.90;;;;;;5001962;28;20494;-85
2022/03/23 09:19:51;;;;;;;39.07;18.53;;;12.00;73.90;;;;;;5008924;28;20201;-88
2022/03/23 09:22:17;;;;;;;34.17;17.70;;;12.20;73.40;;;;;;5009082;28;20182;-88
2022/03/23 09:24:42;;;;;;;38.90;19.40;;;12.30;72.70;;;;;;5005528;28;20216;-87
2022/03/23 09:27:08;;;;;;;35.33;18.00;;;12.50;73.00;;;;;;5007998;28;20181;-87
2022/03/23 09:29:34;;;;;;;41.63;19.93;;;12.60;72.90;;;;;;5005191;28;20339;-87
2022/03/23 09:31:59;;;;;;;34.80;16.70;;;12.90;72.90;;;;;;5008468;28;20268;-87
2022/03/23 09:34:25;;;;;;;39.83;19.40;;;13.10;71.50;;;;;;5008563;28;20412;-87
2022/03/23 09:39:36;;;;;;;40.27;18.40;;;13.20;71.00;;;;;;5014312;28;20711;-88
2022/03/23 09:42:05;;;;;;;34.53;18.10;;;13.40;70.90;;;;;;5008663;28;20420;-87
2022/03/23 09:44:34;;;;;;;37.10;18.70;;;13.50;70.00;;;;;;5007734;28;20212;-87
2022/03/23 09:47:01;;;;;;;37.37;18.87;;;13.50;70.00;;;;;;5010677;28;20411;-87
2022/03/23 09:49:26;;;;;;;45.00;20.60;;;13.50;69.80;;;;;;5017133;28;20522;-87
2022/03/23 09:51:53;;;;;;;41.30;20.07;;;13.70;69.80;;;;;;5009219;28;20469;-87
2022/03/23 09:54:21;;;;;;;39.97;19.07;;;13.90;70.70;;;;;;5011610;28;20184;-87
2022/03/23 09:56:46;;;;;;;44.37;20.37;;;14.20;69.70;;;;;;5011781;28;20961;-87
2022/03/23 09:59:12;;;;;;;34.33;19.03;;;14.40;69.20;;;;;;5005057;28;20454;-87
2022/03/23 10:01:46;;;;;;;44.37;20.07;;;14.40;67.40;;;;;;5001724;28;20196;-88
2022/03/23 10:04:18;;;;;;;39.23;19.70;;;14.40;67.40;;;;;;5011407;28;20730;-88
2022/03/23 10:07:12;;;;;;;47.87;20.93;;;14.50;67.90;;;;;;5029935;28;20399;-87
2022/03/23 10:10:07;;;;;;;37.53;18.73;;;14.60;68.10;;;;;;5011711;28;20439;-87
2022/03/23 10:13:10;;;;;;;38.43;20.23;;;14.70;67.50;;;;;;5011680;28;20411;-87
2022/03/23 10:16:06;;;;;;;41.10;19.40;;;14.70;67.50;;;;;;5012362;28;20447;-86
2022/03/23 10:18:54;;;;;;;35.60;18.60;;;14.90;67.30;;;;;;5030079;28;20945;-88
2022/03/23 10:21:21;;;;;;;37.10;20.47;;;15.00;67.20;;;;;;5024586;28;20419;-87
2022/03/23 10:24:13;;;;;;;33.57;19.13;;;15.10;67.20;;;;;;5029329;28;20463;-87
2022/03/23 10:26:41;;;;;;;33.33;18.90;;;15.10;66.60;;;;;;5012022;28;20477;-87
2022/03/23 10:29:27;;;;;;;37.30;19.97;;;15.20;66.00;;;;;;5012252;28;20856;-87
2022/03/23 10:32:02;;;;;;;38.03;19.00;;;15.40;65.70;;;;;;5012227;28;20673;-87
2022/03/23 10:34:40;;;;;;;36.77;19.80;;;15.50;65.00;;;;;;5030165;28;20830;-88
2022/03/23 10:37:06;;;;;;;38.57;18.03;;;15.50;64.80;;;;;;5011223;28;20475;-88
2022/03/23 10:39:32;;;;;;;35.43;19.47;;;15.60;63.70;;;;;;5007896;28;20468;-88
2022/03/23 10:42:04;;;;;;;31.97;18.13;;;15.60;63.40;;;;;;5011755;28;20192;-88
2022/03/23 10:44:30;;;;;;;40.60;19.87;;;15.80;64.00;;;;;;5008245;28;20478;-86
2022/03/23 10:46:58;;;;;;;42.47;20.80;;;16.00;65.60;;;;;;5027012;28;20754;-87
2022/03/23 10:49:38;;;;;;;35.77;20.00;;;16.30;65.80;;;;;;5010624;28;20477;-87
2022/03/23 10:52:09;;;;;;;37.67;20.90;;;16.60;63.90;;;;;;5010933;28;20553;-87
2022/03/23 10:54:34;;;;;;;34.73;20.30;;;16.60;63.50;;;;;;5011329;28;20416;-87
2022/03/23 10:57:02;;;;;;;39.33;20.13;;;16.70;63.60;;;;;;5029419;28;20418;-86
2022/03/23 10:59:27;;;;;;;37.60;20.30;;;16.90;63.20;;;;;;5010911;28;20204;-87
2022/03/23 11:02:08;;;;;;;36.27;18.73;;;16.90;62.60;;;;;;5010982;28;20411;-86
2022/03/23 11:04:56;;;;;;;38.93;21.10;;;17.00;62.40;;;;;;5011125;28;20204;-87
2022/03/23 11:07:23;;;;;;;37.33;20.90;;;17.30;62.50;;;;;;5010613;28;20411;-88
2022/03/23 11:18:12;;;;;;;42.60;21.97;;;17.50;64.00;;;;;;5030017;28;20497;-87
2022/03/23 11:20:53;;;;;;;41.20;21.43;;;17.60;64.00;;;;;;5011759;28;20486;-88
2022/03/23 11:23:24;;;;;;;46.03;21.57;;;17.70;63.50;;;;;;5011117;28;20455;-89
2022/03/23 11:25:55;;;;;;;40.97;21.33;;;17.70;63.50;;;;;;5011730;28;20403;-88
2022/03/23 11:28:22;;;;;;;36.93;19.97;;;17.80;62.70;;;;;;5011477;28;20411;-88
2022/03/23 11:30:49;;;;;;;43.40;21.67;;;17.70;63.20;;;;;;5011442;28;20426;-87
2022/03/23 11:33:16;;;;;;;40.00;21.60;;;17.80;63.40;;;;;;5010986;28;20844;-89
2022/03/23 11:35:48;;;;;;;43.70;22.60;;;17.90;64.00;;;;;;5030087;28;20414;-88
2022/03/23 11:38:19;;;;;;;43.23;22.00;;;18.10;64.30;;;;;;5011461;28;20450;-88
2022/03/23 11:40:50;;;;;;;47.50;20.90;;;18.20;62.90;;;;;;5011400;28;20467;-89
2022/03/23 11:43:19;;;;;;;41.17;20.30;;;18.40;63.90;;;;;;5011165;28;20459;-90
2022/03/23 11:45:47;;;;;;;44.93;22.47;;;18.40;61.60;;;;;;5011698;28;21017;-86
2022/03/23 11:48:35;;;;;;;41.63;22.10;;;18.40;62.10;;;;;;5012071;28;20848;-85
2022/03/23 11:51:22;;;;;;;48.67;22.57;;;18.30;61.80;;;;;;5030529;28;20427;-85
2022/03/23 11:54:09;;;;;;;39.33;21.87;;;18.50;63.30;;;;;;5014584;28;20430;-86
2022/03/23 11:56:58;;;;;;;40.13;20.30;;;18.60;61.00;;;;;;5015393;28;20415;-86
2022/03/23 11:59:26;;;;;;;39.97;20.23;;;18.70;62.00;;;;;;5013797;28;20434;-87
2022/03/23 12:01:52;;;;;;;42.47;22.93;;;18.80;62.20;;;;;;5026886;28;20438;-85
2022/03/23 12:04:47;;;;;;;42.93;21.20;;;19.00;61.40;;;;;;5029246;28;21061;-87
2022/03/23 12:07:19;;;;;;;38.30;20.83;;;19.20;60.30;;;;;;5035043;28;20421;-87
2022/03/23 12:10:07;;;;;;;39.27;22.30;;;19.10;59.70;;;;;;5028817;28;20514;-87
2022/03/23 12:12:38;;;;;;;38.93;20.97;;;19.20;60.80;;;;;;5014479;28;20972;-86
2022/03/23 12:15:26;;;;;;;43.00;21.97;;;19.30;60.70;;;;;;5009673;28;20469;-87
2022/03/23 12:17:57;;;;;;;38.83;21.37;;;19.50;61.30;;;;;;5014489;28;20884;-86
2022/03/23 12:20:37;;;;;;;37.20;20.47;;;19.80;61.90;;;;;;5009152;28;20440;-87
2022/03/23 12:23:23;;;;;;;37.70;21.23;;;20.10;61.30;;;;;;5026325;28;20634;-86
2022/03/23 12:25:56;;;;;;;38.87;21.50;;;20.30;60.80;;;;;;5014520;28;20419;-87
2022/03/23 12:28:43;;;;;;;42.63;23.53;;;20.40;59.30;;;;;;5014510;28;20937;-87
2022/03/23 12:31:13;;;;;;;36.83;20.37;;;20.50;59.60;;;;;;5013949;28;20442;-87
2022/03/23 12:34:18;;;;;;;34.93;20.17;;;20.50;58.80;;;;;;5014757;28;20438;-87
2022/03/23 12:37:01;;;;;;;40.63;22.47;;;20.10;57.70;;;;;;4916599;29;20471;-87
2022/03/23 12:39:40;;;;;;;36.37;21.43;;;20.10;59.10;;;;;;4931839;29;21119;-88
2022/03/23 12:42:12;;;;;;;41.73;19.77;;;20.20;58.10;;;;;;4982228;28;20419;-87
2022/03/23 12:44:42;;;;;;;38.13;20.53;;;20.20;56.70;;;;;;5013832;28;20815;-86
2022/03/23 12:47:11;;;;;;;34.27;20.40;;;20.10;57.50;;;;;;5031066;28;20898;-87
2022/03/23 12:58:08;;;;;;;34.77;19.80;;;20.40;56.80;;;;;;5028435;28;20461;-87
2022/03/23 13:00:43;;;;;;;38.23;20.77;;;20.60;56.10;;;;;;5012217;28;20977;-87
2022/03/23 13:03:09;;;;;;;33.63;20.13;;;20.70;53.70;;;;;;5012883;28;20848;-86
2022/03/23 13:06:00;;;;;;;39.70;21.37;;;20.70;54.70;;;;;;5009818;28;20419;-86
2022/03/23 13:08:35;;;;;;;32.97;19.03;;;20.90;55.00;;;;;;5009612;28;20178;-87
2022/03/23 13:11:03;;;;;;;34.70;20.57;;;21.10;53.70;;;;;;5029192;28;20437;-86